sensor_id;sensor_type;location;lat;lon;timestamp;P1;durP1;ratioP1;P2;durP2;ratioP2
28007;SDS011;15333;50.010;20.020;2023-02-12T00:02:53;147.77;;;59.83;;
28007;SDS011;15333;50.010;20.020;2023-02-12T00:05:54;152.85;;;62.70;;
28007;SDS011;15333;50.010;20.020;2023-02-12T00:09:00;158.00;;;63.13;;
28007;SDS011;15333;50.010;20.020;2023-02-12T00:12:01;152.93;;;61.88;;
28007;SDS011;15333;50.010;20.020;2023-02-12T00:15:02;146.82;;;60.95;;
28007;SDS011;15333;50.010;20.020;2023-02-12T00:18:04;148.10;;;64.30;;
28007;SDS011;15333;50.010;20.020;2023-02-12T00:21:05;159.20;;;66.00;;
28007;SDS011;15333;50.010;20.020;2023-02-12T00:24:08;160.68;;;68.32;;
28007;SDS011;15333;50.010;20.020;2023-02-12T00:27:09;156.43;;;68.38;;
28007;SDS011;15333;50.010;20.020;2023-02-12T00:30:10;156.43;;;66.47;;
28007;SDS011;15333;50.010;20.020;2023-02-12T00:33:11;160.18;;;68.05;;
28007;SDS011;15333;50.010;20.020;2023-02-12T00:36:13;152.43;;;66.47;;
28007;SDS011;15333;50.010;20.020;2023-02-12T00:39:16;144.18;;;62.90;;
28007;SDS011;15333;50.010;20.020;2023-02-12T00:42:17;155.30;;;65.45;;
28007;SDS011;15333;50.010;20.020;2023-02-12T00:45:19;152.25;;;61.38;;
28007;SDS011;15333;50.010;20.020;2023-02-12T00:48:20;151.82;;;66.28;;
28007;SDS011;15333;50.010;20.020;2023-02-12T00:51:21;149.85;;;64.88;;
28007;SDS011;15333;50.010;20.020;2023-02-12T00:54:23;152.57;;;65.95;;
28007;SDS011;15333;50.010;20.020;2023-02-12T00:57:23;145.65;;;62.13;;
28007;SDS011;15333;50.010;20.020;2023-02-12T01:00:25;150.27;;;64.38;;
28007;SDS011;15333;50.010;20.020;2023-02-12T01:03:26;139.00;;;61.42;;
28007;SDS011;15333;50.010;20.020;2023-02-12T01:06:27;137.55;;;62.25;;
28007;SDS011;15333;50.010;20.020;2023-02-12T01:09:28;142.70;;;62.63;;
28007;SDS011;15333;50.010;20.020;2023-02-12T01:12:29;137.93;;;60.42;;
28007;SDS011;15333;50.010;20.020;2023-02-12T01:15:30;130.20;;;57.17;;
28007;SDS011;15333;50.010;20.020;2023-02-12T01:18:31;143.63;;;63.92;;
28007;SDS011;15333;50.010;20.020;2023-02-12T01:21:33;140.32;;;61.20;;
28007;SDS011;15333;50.010;20.020;2023-02-12T01:24:34;144.50;;;64.10;;
28007;SDS011;15333;50.010;20.020;2023-02-12T01:27:35;138.35;;;62.88;;
28007;SDS011;15333;50.010;20.020;2023-02-12T01:30:36;138.68;;;59.85;;
28007;SDS011;15333;50.010;20.020;2023-02-12T01:33:38;136.73;;;60.25;;
28007;SDS011;15333;50.010;20.020;2023-02-12T01:36:40;134.95;;;60.15;;
28007;SDS011;15333;50.010;20.020;2023-02-12T01:39:41;135.40;;;59.08;;
28007;SDS011;15333;50.010;20.020;2023-02-12T01:42:42;128.52;;;56.78;;
28007;SDS011;15333;50.010;20.020;2023-02-12T01:45:45;138.40;;;61.08;;
28007;SDS011;15333;50.010;20.020;2023-02-12T01:48:48;131.95;;;59.90;;
28007;SDS011;15333;50.010;20.020;2023-02-12T01:51:54;131.45;;;58.88;;
28007;SDS011;15333;50.010;20.020;2023-02-12T01:55:01;135.02;;;60.88;;
28007;SDS011;15333;50.010;20.020;2023-02-12T01:58:04;135.40;;;59.35;;
28007;SDS011;15333;50.010;20.020;2023-02-12T02:01:09;143.93;;;64.85;;
28007;SDS011;15333;50.010;20.020;2023-02-12T02:04:14;136.52;;;61.10;;
28007;SDS011;15333;50.010;20.020;2023-02-12T02:07:18;147.38;;;64.28;;
28007;SDS011;15333;50.010;20.020;2023-02-12T02:10:19;144.68;;;63.58;;
28007;SDS011;15333;50.010;20.020;2023-02-12T02:13:21;138.07;;;62.17;;
28007;SDS011;15333;50.010;20.020;2023-02-12T02:16:41;138.13;;;60.50;;
28007;SDS011;15333;50.010;20.020;2023-02-12T02:32:49;144.30;;;63.22;;
28007;SDS011;15333;50.010;20.020;2023-02-12T02:42:53;138.90;;;61.70;;
28007;SDS011;15333;50.010;20.020;2023-02-12T02:45:59;140.10;;;59.47;;
28007;SDS011;15333;50.010;20.020;2023-02-12T02:49:06;140.68;;;61.72;;
28007;SDS011;15333;50.010;20.020;2023-02-12T02:52:16;143.82;;;61.22;;
28007;SDS011;15333;50.010;20.020;2023-02-12T02:55:22;119.57;;;56.00;;
28007;SDS011;15333;50.010;20.020;2023-02-12T02:58:30;113.40;;;49.10;;
28007;SDS011;15333;50.010;20.020;2023-02-12T03:01:39;94.50;;;42.67;;
28007;SDS011;15333;50.010;20.020;2023-02-12T03:04:48;90.40;;;40.05;;
28007;SDS011;15333;50.010;20.020;2023-02-12T03:07:54;62.17;;;29.70;;
28007;SDS011;15333;50.010;20.020;2023-02-12T03:11:04;67.43;;;32.60;;
28007;SDS011;15333;50.010;20.020;2023-02-12T03:14:21;81.63;;;39.15;;
28007;SDS011;15333;50.010;20.020;2023-02-12T03:17:28;82.38;;;39.08;;
28007;SDS011;15333;50.010;20.020;2023-02-12T03:20:41;87.35;;;40.58;;
28007;SDS011;15333;50.010;20.020;2023-02-12T03:24:01;88.85;;;43.10;;
28007;SDS011;15333;50.010;20.020;2023-02-12T03:36:54;89.38;;;41.92;;
28007;SDS011;15333;50.010;20.020;2023-02-12T03:46:43;73.95;;;36.35;;
28007;SDS011;15333;50.010;20.020;2023-02-12T03:50:36;84.13;;;40.47;;
28007;SDS011;15333;50.010;20.020;2023-02-12T03:53:21;88.05;;;41.42;;
28007;SDS011;15333;50.010;20.020;2023-02-12T03:57:06;81.30;;;39.95;;
28007;SDS011;15333;50.010;20.020;2023-02-12T04:00:06;97.13;;;43.60;;
28007;SDS011;15333;50.010;20.020;2023-02-12T04:03:16;88.95;;;42.88;;
28007;SDS011;15333;50.010;20.020;2023-02-12T04:06:18;89.28;;;42.28;;
28007;SDS011;15333;50.010;20.020;2023-02-12T04:09:21;92.85;;;44.47;;
28007;SDS011;15333;50.010;20.020;2023-02-12T04:12:38;90.38;;;43.75;;
28007;SDS011;15333;50.010;20.020;2023-02-12T04:18:54;89.57;;;43.55;;
28007;SDS011;15333;50.010;20.020;2023-02-12T04:22:14;95.38;;;44.95;;
28007;SDS011;15333;50.010;20.020;2023-02-12T04:28:47;93.65;;;44.17;;
28007;SDS011;15333;50.010;20.020;2023-02-12T04:32:03;85.13;;;40.10;;
28007;SDS011;15333;50.010;20.020;2023-02-12T04:35:14;81.80;;;37.05;;
28007;SDS011;15333;50.010;20.020;2023-02-12T04:38:43;85.47;;;39.85;;
28007;SDS011;15333;50.010;20.020;2023-02-12T04:41:51;78.10;;;37.90;;
28007;SDS011;15333;50.010;20.020;2023-02-12T04:44:52;86.90;;;39.05;;
28007;SDS011;15333;50.010;20.020;2023-02-12T04:47:53;62.72;;;31.80;;
28007;SDS011;15333;50.010;20.020;2023-02-12T04:50:54;64.88;;;28.98;;
28007;SDS011;15333;50.010;20.020;2023-02-12T04:53:55;69.93;;;32.83;;
28007;SDS011;15333;50.010;20.020;2023-02-12T04:56:56;65.22;;;28.90;;
28007;SDS011;15333;50.010;20.020;2023-02-12T04:59:57;61.90;;;27.63;;
28007;SDS011;15333;50.010;20.020;2023-02-12T05:02:58;54.20;;;26.70;;
28007;SDS011;15333;50.010;20.020;2023-02-12T05:06:06;60.15;;;27.08;;
28007;SDS011;15333;50.010;20.020;2023-02-12T05:09:09;52.38;;;24.13;;
28007;SDS011;15333;50.010;20.020;2023-02-12T05:12:13;44.45;;;19.67;;
28007;SDS011;15333;50.010;20.020;2023-02-12T05:15:14;44.40;;;18.50;;
28007;SDS011;15333;50.010;20.020;2023-02-12T05:18:15;38.03;;;16.75;;
28007;SDS011;15333;50.010;20.020;2023-02-12T05:21:16;37.97;;;17.27;;
28007;SDS011;15333;50.010;20.020;2023-02-12T05:24:17;38.13;;;16.55;;
28007;SDS011;15333;50.010;20.020;2023-02-12T05:27:17;43.28;;;17.33;;
28007;SDS011;15333;50.010;20.020;2023-02-12T05:30:19;41.20;;;17.30;;
28007;SDS011;15333;50.010;20.020;2023-02-12T05:33:19;38.40;;;15.52;;
28007;SDS011;15333;50.010;20.020;2023-02-12T05:36:21;29.02;;;15.20;;
28007;SDS011;15333;50.010;20.020;2023-02-12T05:39:23;35.63;;;16.65;;
28007;SDS011;15333;50.010;20.020;2023-02-12T05:42:24;32.80;;;15.55;;
28007;SDS011;15333;50.010;20.020;2023-02-12T05:45:25;38.22;;;16.33;;
28007;SDS011;15333;50.010;20.020;2023-02-12T05:48:28;37.38;;;15.73;;
28007;SDS011;15333;50.010;20.020;2023-02-12T05:51:29;34.28;;;14.60;;
28007;SDS011;15333;50.010;20.020;2023-02-12T05:54:31;33.80;;;15.52;;
28007;SDS011;15333;50.010;20.020;2023-02-12T05:57:32;38.17;;;14.68;;
28007;SDS011;15333;50.010;20.020;2023-02-12T06:00:33;31.75;;;14.05;;
28007;SDS011;15333;50.010;20.020;2023-02-12T06:03:34;40.72;;;16.33;;
28007;SDS011;15333;50.010;20.020;2023-02-12T06:06:35;33.05;;;15.98;;
28007;SDS011;15333;50.010;20.020;2023-02-12T06:09:36;41.22;;;15.93;;
28007;SDS011;15333;50.010;20.020;2023-02-12T06:12:37;43.65;;;16.48;;
28007;SDS011;15333;50.010;20.020;2023-02-12T06:15:38;40.78;;;15.07;;
28007;SDS011;15333;50.010;20.020;2023-02-12T06:18:39;40.28;;;16.38;;
28007;SDS011;15333;50.010;20.020;2023-02-12T06:21:40;46.70;;;17.10;;
28007;SDS011;15333;50.010;20.020;2023-02-12T06:24:41;36.13;;;15.77;;
28007;SDS011;15333;50.010;20.020;2023-02-12T06:27:42;32.88;;;14.95;;
28007;SDS011;15333;50.010;20.020;2023-02-12T06:30:43;40.03;;;15.52;;
28007;SDS011;15333;50.010;20.020;2023-02-12T06:33:43;34.38;;;14.90;;
28007;SDS011;15333;50.010;20.020;2023-02-12T06:36:45;29.58;;;14.68;;
28007;SDS011;15333;50.010;20.020;2023-02-12T06:39:47;39.88;;;15.95;;
28007;SDS011;15333;50.010;20.020;2023-02-12T06:42:48;28.75;;;13.93;;
28007;SDS011;15333;50.010;20.020;2023-02-12T06:45:49;32.92;;;14.25;;
28007;SDS011;15333;50.010;20.020;2023-02-12T06:48:53;37.88;;;14.18;;
28007;SDS011;15333;50.010;20.020;2023-02-12T06:51:55;37.55;;;16.05;;
28007;SDS011;15333;50.010;20.020;2023-02-12T06:54:56;33.53;;;14.80;;
28007;SDS011;15333;50.010;20.020;2023-02-12T06:57:57;35.40;;;15.02;;
28007;SDS011;15333;50.010;20.020;2023-02-12T07:01:11;27.65;;;13.40;;
28007;SDS011;15333;50.010;20.020;2023-02-12T07:04:17;30.77;;;13.73;;
28007;SDS011;15333;50.010;20.020;2023-02-12T07:07:18;22.75;;;11.73;;
28007;SDS011;15333;50.010;20.020;2023-02-12T07:10:19;27.58;;;13.32;;
28007;SDS011;15333;50.010;20.020;2023-02-12T07:13:20;29.52;;;13.30;;
28007;SDS011;15333;50.010;20.020;2023-02-12T07:16:20;33.67;;;13.75;;
28007;SDS011;15333;50.010;20.020;2023-02-12T07:19:22;27.90;;;12.68;;
28007;SDS011;15333;50.010;20.020;2023-02-12T07:22:23;24.02;;;12.45;;
28007;SDS011;15333;50.010;20.020;2023-02-12T07:25:24;22.52;;;11.70;;
28007;SDS011;15333;50.010;20.020;2023-02-12T07:28:25;43.42;;;20.25;;
28007;SDS011;15333;50.010;20.020;2023-02-12T07:31:26;21.90;;;11.43;;
28007;SDS011;15333;50.010;20.020;2023-02-12T07:34:28;23.13;;;10.35;;
28007;SDS011;15333;50.010;20.020;2023-02-12T07:37:29;17.42;;;9.77;;
28007;SDS011;15333;50.010;20.020;2023-02-12T07:40:29;18.08;;;10.02;;
28007;SDS011;15333;50.010;20.020;2023-02-12T07:43:31;22.27;;;9.98;;
28007;SDS011;15333;50.010;20.020;2023-02-12T07:46:32;19.83;;;10.70;;
28007;SDS011;15333;50.010;20.020;2023-02-12T07:49:36;19.85;;;10.10;;
28007;SDS011;15333;50.010;20.020;2023-02-12T07:52:37;21.13;;;10.00;;
28007;SDS011;15333;50.010;20.020;2023-02-12T07:55:38;20.92;;;10.02;;
28007;SDS011;15333;50.010;20.020;2023-02-12T07:58:39;16.45;;;9.57;;
28007;SDS011;15333;50.010;20.020;2023-02-12T08:01:44;15.00;;;8.60;;
28007;SDS011;15333;50.010;20.020;2023-02-12T08:04:49;15.30;;;9.00;;
28007;SDS011;15333;50.010;20.020;2023-02-12T08:07:50;17.27;;;8.02;;
28007;SDS011;15333;50.010;20.020;2023-02-12T08:10:51;18.02;;;9.90;;
28007;SDS011;15333;50.010;20.020;2023-02-12T08:13:55;15.65;;;8.55;;
28007;SDS011;15333;50.010;20.020;2023-02-12T08:16:57;14.73;;;8.80;;
28007;SDS011;15333;50.010;20.020;2023-02-12T08:19:58;13.63;;;7.88;;
28007;SDS011;15333;50.010;20.020;2023-02-12T08:22:59;12.98;;;7.45;;
28007;SDS011;15333;50.010;20.020;2023-02-12T08:26:07;14.32;;;8.05;;
28007;SDS011;15333;50.010;20.020;2023-02-12T08:29:11;17.10;;;8.25;;
28007;SDS011;15333;50.010;20.020;2023-02-12T08:32:14;15.70;;;8.88;;
28007;SDS011;15333;50.010;20.020;2023-02-12T08:35:16;11.68;;;7.22;;
28007;SDS011;15333;50.010;20.020;2023-02-12T08:38:17;15.98;;;7.97;;
28007;SDS011;15333;50.010;20.020;2023-02-12T08:41:22;15.20;;;6.72;;
28007;SDS011;15333;50.010;20.020;2023-02-12T08:44:25;16.27;;;7.32;;
28007;SDS011;15333;50.010;20.020;2023-02-12T08:47:26;13.43;;;7.18;;
28007;SDS011;15333;50.010;20.020;2023-02-12T08:50:27;14.80;;;7.00;;
28007;SDS011;15333;50.010;20.020;2023-02-12T08:53:27;13.20;;;7.80;;
28007;SDS011;15333;50.010;20.020;2023-02-12T08:56:29;11.13;;;6.75;;
28007;SDS011;15333;50.010;20.020;2023-02-12T08:59:31;14.30;;;7.13;;
28007;SDS011;15333;50.010;20.020;2023-02-12T09:02:33;14.63;;;6.72;;
28007;SDS011;15333;50.010;20.020;2023-02-12T09:05:36;11.75;;;7.43;;
28007;SDS011;15333;50.010;20.020;2023-02-12T09:08:38;12.98;;;7.05;;
28007;SDS011;15333;50.010;20.020;2023-02-12T09:11:40;11.13;;;6.18;;
28007;SDS011;15333;50.010;20.020;2023-02-12T09:14:41;10.05;;;6.40;;
28007;SDS011;15333;50.010;20.020;2023-02-12T09:17:42;13.63;;;6.90;;
28007;SDS011;15333;50.010;20.020;2023-02-12T09:20:43;12.27;;;7.18;;
28007;SDS011;15333;50.010;20.020;2023-02-12T09:23:45;15.52;;;7.10;;
28007;SDS011;15333;50.010;20.020;2023-02-12T09:26:47;9.27;;;6.68;;
28007;SDS011;15333;50.010;20.020;2023-02-12T09:29:47;10.10;;;6.72;;
28007;SDS011;15333;50.010;20.020;2023-02-12T09:32:48;11.27;;;7.32;;
28007;SDS011;15333;50.010;20.020;2023-02-12T09:35:49;13.55;;;6.80;;
28007;SDS011;15333;50.010;20.020;2023-02-12T09:38:51;10.85;;;6.88;;
28007;SDS011;15333;50.010;20.020;2023-02-12T09:51:47;10.27;;;6.95;;
28007;SDS011;15333;50.010;20.020;2023-02-12T09:54:53;13.32;;;7.30;;
28007;SDS011;15333;50.010;20.020;2023-02-12T09:57:55;12.45;;;7.65;;
28007;SDS011;15333;50.010;20.020;2023-02-12T10:00:56;11.25;;;7.63;;
28007;SDS011;15333;50.010;20.020;2023-02-12T10:03:57;12.25;;;7.32;;
28007;SDS011;15333;50.010;20.020;2023-02-12T10:07:01;11.60;;;7.35;;
28007;SDS011;15333;50.010;20.020;2023-02-12T10:10:14;11.52;;;6.95;;
28007;SDS011;15333;50.010;20.020;2023-02-12T10:20:35;11.23;;;7.30;;
28007;SDS011;15333;50.010;20.020;2023-02-12T10:27:39;10.32;;;7.00;;
28007;SDS011;15333;50.010;20.020;2023-02-12T10:30:53;13.07;;;7.45;;
28007;SDS011;15333;50.010;20.020;2023-02-12T10:34:00;12.27;;;7.15;;
28007;SDS011;15333;50.010;20.020;2023-02-12T10:37:25;14.07;;;8.32;;
28007;SDS011;15333;50.010;20.020;2023-02-12T10:40:39;10.30;;;6.32;;
28007;SDS011;15333;50.010;20.020;2023-02-12T10:43:44;14.50;;;8.25;;
28007;SDS011;15333;50.010;20.020;2023-02-12T10:46:45;10.82;;;7.65;;
28007;SDS011;15333;50.010;20.020;2023-02-12T10:49:48;12.15;;;7.55;;
28007;SDS011;15333;50.010;20.020;2023-02-12T10:53:01;11.90;;;7.35;;
28007;SDS011;15333;50.010;20.020;2023-02-12T10:56:17;13.90;;;7.68;;
28007;SDS011;15333;50.010;20.020;2023-02-12T10:59:23;12.32;;;7.10;;
28007;SDS011;15333;50.010;20.020;2023-02-12T11:02:26;15.05;;;6.95;;
28007;SDS011;15333;50.010;20.020;2023-02-12T11:05:29;15.10;;;7.88;;
28007;SDS011;15333;50.010;20.020;2023-02-12T11:08:34;11.90;;;7.53;;
28007;SDS011;15333;50.010;20.020;2023-02-12T11:11:37;12.20;;;7.32;;
28007;SDS011;15333;50.010;20.020;2023-02-12T11:14:38;11.35;;;7.80;;
28007;SDS011;15333;50.010;20.020;2023-02-12T11:17:40;12.35;;;7.10;;
28007;SDS011;15333;50.010;20.020;2023-02-12T11:20:50;14.10;;;8.63;;
28007;SDS011;15333;50.010;20.020;2023-02-12T11:23:54;12.35;;;8.07;;
28007;SDS011;15333;50.010;20.020;2023-02-12T11:33:16;13.45;;;8.15;;
28007;SDS011;15333;50.010;20.020;2023-02-12T11:36:23;14.48;;;8.82;;
28007;SDS011;15333;50.010;20.020;2023-02-12T11:39:36;14.57;;;7.90;;
28007;SDS011;15333;50.010;20.020;2023-02-12T11:42:39;13.48;;;7.43;;
28007;SDS011;15333;50.010;20.020;2023-02-12T11:45:46;13.98;;;8.82;;
28007;SDS011;15333;50.010;20.020;2023-02-12T11:48:52;15.30;;;8.60;;
28007;SDS011;15333;50.010;20.020;2023-02-12T11:51:55;15.55;;;9.23;;
28007;SDS011;15333;50.010;20.020;2023-02-12T11:55:03;17.65;;;9.15;;
28007;SDS011;15333;50.010;20.020;2023-02-12T11:58:17;16.63;;;8.95;;
28007;SDS011;15333;50.010;20.020;2023-02-12T12:01:23;18.20;;;9.93;;
28007;SDS011;15333;50.010;20.020;2023-02-12T12:04:29;13.15;;;9.18;;
28007;SDS011;15333;50.010;20.020;2023-02-12T12:07:35;16.15;;;9.43;;
28007;SDS011;15333;50.010;20.020;2023-02-12T12:10:40;15.57;;;9.13;;
28007;SDS011;15333;50.010;20.020;2023-02-12T12:17:37;17.98;;;10.18;;
28007;SDS011;15333;50.010;20.020;2023-02-12T12:21:19;17.73;;;10.90;;
28007;SDS011;15333;50.010;20.020;2023-02-12T12:24:38;20.35;;;11.45;;
28007;SDS011;15333;50.010;20.020;2023-02-12T12:31:13;16.75;;;10.05;;
28007;SDS011;15333;50.010;20.020;2023-02-12T12:34:19;19.67;;;10.43;;
28007;SDS011;15333;50.010;20.020;2023-02-12T12:58:11;20.88;;;11.18;;
28007;SDS011;15333;50.010;20.020;2023-02-12T13:01:37;16.98;;;11.15;;
28007;SDS011;15333;50.010;20.020;2023-02-12T13:15:38;20.55;;;11.73;;
28007;SDS011;15333;50.010;20.020;2023-02-12T13:19:01;23.02;;;11.25;;
28007;SDS011;15333;50.010;20.020;2023-02-12T13:22:10;19.08;;;10.25;;
28007;SDS011;15333;50.010;20.020;2023-02-12T13:25:30;22.52;;;11.52;;
28007;SDS011;15333;50.010;20.020;2023-02-12T13:32:28;22.75;;;11.88;;
28007;SDS011;15333;50.010;20.020;2023-02-12T13:35:36;26.23;;;12.90;;
28007;SDS011;15333;50.010;20.020;2023-02-12T13:39:05;19.80;;;12.15;;
28007;SDS011;15333;50.010;20.020;2023-02-12T13:48:59;21.00;;;13.05;;
28007;SDS011;15333;50.010;20.020;2023-02-12T13:55:20;25.85;;;14.40;;
28007;SDS011;15333;50.010;20.020;2023-02-12T14:01:40;29.60;;;13.65;;
28007;SDS011;15333;50.010;20.020;2023-02-12T14:04:44;25.08;;;13.52;;
28007;SDS011;15333;50.010;20.020;2023-02-12T14:07:51;25.58;;;13.40;;
28007;SDS011;15333;50.010;20.020;2023-02-12T14:11:06;22.13;;;13.38;;
28007;SDS011;15333;50.010;20.020;2023-02-12T14:14:23;25.13;;;12.93;;
28007;SDS011;15333;50.010;20.020;2023-02-12T14:20:32;27.27;;;13.45;;
28007;SDS011;15333;50.010;20.020;2023-02-12T14:23:35;25.20;;;15.13;;
28007;SDS011;15333;50.010;20.020;2023-02-12T14:26:37;23.45;;;14.23;;
28007;SDS011;15333;50.010;20.020;2023-02-12T14:29:38;22.88;;;13.27;;
28007;SDS011;15333;50.010;20.020;2023-02-12T14:36:12;26.30;;;14.05;;
28007;SDS011;15333;50.010;20.020;2023-02-12T14:45:33;26.25;;;14.40;;
28007;SDS011;15333;50.010;20.020;2023-02-12T14:48:43;26.70;;;14.93;;
28007;SDS011;15333;50.010;20.020;2023-02-12T14:51:53;30.00;;;15.02;;
28007;SDS011;15333;50.010;20.020;2023-02-12T14:54:59;32.80;;;15.02;;
28007;SDS011;15333;50.010;20.020;2023-02-12T14:58:02;26.77;;;14.90;;
28007;SDS011;15333;50.010;20.020;2023-02-12T15:01:05;28.65;;;14.93;;
28007;SDS011;15333;50.010;20.020;2023-02-12T15:04:11;26.17;;;14.30;;
28007;SDS011;15333;50.010;20.020;2023-02-12T15:07:22;29.52;;;14.05;;
28007;SDS011;15333;50.010;20.020;2023-02-12T15:10:30;24.60;;;15.25;;
28007;SDS011;15333;50.010;20.020;2023-02-12T15:13:47;24.52;;;13.52;;
28007;SDS011;15333;50.010;20.020;2023-02-12T15:17:01;25.40;;;14.73;;
28007;SDS011;15333;50.010;20.020;2023-02-12T15:20:19;27.35;;;15.02;;
28007;SDS011;15333;50.010;20.020;2023-02-12T15:26:40;28.63;;;14.65;;
28007;SDS011;15333;50.010;20.020;2023-02-12T15:29:45;29.73;;;15.18;;
28007;SDS011;15333;50.010;20.020;2023-02-12T15:32:49;25.08;;;14.75;;
28007;SDS011;15333;50.010;20.020;2023-02-12T15:35:51;28.90;;;16.80;;
28007;SDS011;15333;50.010;20.020;2023-02-12T15:39:03;31.83;;;15.38;;
28007;SDS011;15333;50.010;20.020;2023-02-12T15:42:21;32.88;;;15.95;;
28007;SDS011;15333;50.010;20.020;2023-02-12T15:45:28;35.30;;;16.92;;
28007;SDS011;15333;50.010;20.020;2023-02-12T15:48:32;34.42;;;17.27;;
28007;SDS011;15333;50.010;20.020;2023-02-12T15:51:36;36.88;;;18.10;;
28007;SDS011;15333;50.010;20.020;2023-02-12T15:54:41;38.75;;;17.90;;
28007;SDS011;15333;50.010;20.020;2023-02-12T15:57:51;36.78;;;17.85;;
28007;SDS011;15333;50.010;20.020;2023-02-12T16:00:58;33.00;;;16.98;;
28007;SDS011;15333;50.010;20.020;2023-02-12T16:04:05;36.58;;;17.13;;
28007;SDS011;15333;50.010;20.020;2023-02-12T16:07:08;35.70;;;17.30;;
28007;SDS011;15333;50.010;20.020;2023-02-12T16:10:15;37.60;;;17.42;;
28007;SDS011;15333;50.010;20.020;2023-02-12T16:13:20;40.80;;;18.52;;
28007;SDS011;15333;50.010;20.020;2023-02-12T16:16:29;34.03;;;16.98;;
28007;SDS011;15333;50.010;20.020;2023-02-12T16:23:21;39.38;;;18.60;;
28007;SDS011;15333;50.010;20.020;2023-02-12T16:26:23;43.63;;;18.77;;
28007;SDS011;15333;50.010;20.020;2023-02-12T16:29:26;36.72;;;16.45;;
28007;SDS011;15333;50.010;20.020;2023-02-12T16:32:32;38.20;;;17.33;;
28007;SDS011;15333;50.010;20.020;2023-02-12T16:35:42;40.30;;;18.10;;
28007;SDS011;15333;50.010;20.020;2023-02-12T16:38:43;32.17;;;17.90;;
28007;SDS011;15333;50.010;20.020;2023-02-12T16:41:53;36.83;;;17.08;;
28007;SDS011;15333;50.010;20.020;2023-02-12T16:44:56;32.90;;;17.23;;
28007;SDS011;15333;50.010;20.020;2023-02-12T16:54:39;41.78;;;18.13;;
28007;SDS011;15333;50.010;20.020;2023-02-12T16:57:40;42.55;;;18.80;;
28007;SDS011;15333;50.010;20.020;2023-02-12T17:00:42;46.58;;;19.52;;
28007;SDS011;15333;50.010;20.020;2023-02-12T17:03:42;40.70;;;20.45;;
28007;SDS011;15333;50.010;20.020;2023-02-12T17:06:47;46.72;;;21.48;;
28007;SDS011;15333;50.010;20.020;2023-02-12T17:09:48;40.30;;;20.70;;
28007;SDS011;15333;50.010;20.020;2023-02-12T17:12:50;44.78;;;22.17;;
28007;SDS011;15333;50.010;20.020;2023-02-12T17:15:53;47.15;;;22.20;;
28007;SDS011;15333;50.010;20.020;2023-02-12T17:19:01;49.17;;;21.55;;
28007;SDS011;15333;50.010;20.020;2023-02-12T17:22:02;47.38;;;20.55;;
28007;SDS011;15333;50.010;20.020;2023-02-12T17:25:05;41.03;;;19.02;;
28007;SDS011;15333;50.010;20.020;2023-02-12T17:28:06;43.83;;;20.33;;
28007;SDS011;15333;50.010;20.020;2023-02-12T17:31:08;43.83;;;20.15;;
28007;SDS011;15333;50.010;20.020;2023-02-12T17:34:09;47.67;;;20.85;;
28007;SDS011;15333;50.010;20.020;2023-02-12T17:37:11;50.00;;;22.00;;
28007;SDS011;15333;50.010;20.020;2023-02-12T17:40:13;45.13;;;19.55;;
28007;SDS011;15333;50.010;20.020;2023-02-12T17:43:14;52.72;;;21.38;;
28007;SDS011;15333;50.010;20.020;2023-02-12T17:46:19;48.63;;;22.17;;
28007;SDS011;15333;50.010;20.020;2023-02-12T17:49:23;53.08;;;24.25;;
28007;SDS011;15333;50.010;20.020;2023-02-12T17:52:24;51.22;;;25.00;;
28007;SDS011;15333;50.010;20.020;2023-02-12T17:55:25;56.95;;;25.27;;
28007;SDS011;15333;50.010;20.020;2023-02-12T17:58:26;56.85;;;26.58;;
28007;SDS011;15333;50.010;20.020;2023-02-12T18:01:27;51.97;;;24.95;;
28007;SDS011;15333;50.010;20.020;2023-02-12T18:04:29;49.83;;;23.88;;
28007;SDS011;15333;50.010;20.020;2023-02-12T18:07:33;46.50;;;22.98;;
28007;SDS011;15333;50.010;20.020;2023-02-12T18:10:42;51.53;;;22.83;;
28007;SDS011;15333;50.010;20.020;2023-02-12T18:13:44;49.15;;;21.95;;
28007;SDS011;15333;50.010;20.020;2023-02-12T18:16:45;45.83;;;23.23;;
28007;SDS011;15333;50.010;20.020;2023-02-12T18:19:47;45.47;;;20.70;;
28007;SDS011;15333;50.010;20.020;2023-02-12T18:22:49;44.40;;;21.92;;
28007;SDS011;15333;50.010;20.020;2023-02-12T18:25:50;48.80;;;22.85;;
28007;SDS011;15333;50.010;20.020;2023-02-12T18:28:51;43.50;;;21.48;;
28007;SDS011;15333;50.010;20.020;2023-02-12T18:31:53;50.65;;;23.33;;
28007;SDS011;15333;50.010;20.020;2023-02-12T18:34:54;46.58;;;23.20;;
28007;SDS011;15333;50.010;20.020;2023-02-12T18:37:55;51.85;;;23.38;;
28007;SDS011;15333;50.010;20.020;2023-02-12T18:40:56;53.47;;;22.02;;
28007;SDS011;15333;50.010;20.020;2023-02-12T18:43:59;50.85;;;24.40;;
28007;SDS011;15333;50.010;20.020;2023-02-12T18:47:01;50.75;;;24.00;;
28007;SDS011;15333;50.010;20.020;2023-02-12T18:50:02;53.88;;;25.45;;
28007;SDS011;15333;50.010;20.020;2023-02-12T18:53:04;57.15;;;29.45;;
28007;SDS011;15333;50.010;20.020;2023-02-12T18:56:06;54.72;;;27.52;;
28007;SDS011;15333;50.010;20.020;2023-02-12T18:59:10;51.50;;;25.88;;
28007;SDS011;15333;50.010;20.020;2023-02-12T19:02:12;51.58;;;24.15;;
28007;SDS011;15333;50.010;20.020;2023-02-12T19:05:14;54.92;;;25.77;;
28007;SDS011;15333;50.010;20.020;2023-02-12T19:08:15;51.83;;;26.70;;
28007;SDS011;15333;50.010;20.020;2023-02-12T19:11:15;66.68;;;29.52;;
28007;SDS011;15333;50.010;20.020;2023-02-12T19:14:17;59.03;;;29.48;;
28007;SDS011;15333;50.010;20.020;2023-02-12T19:17:19;64.13;;;29.80;;
28007;SDS011;15333;50.010;20.020;2023-02-12T19:20:20;60.03;;;29.05;;
28007;SDS011;15333;50.010;20.020;2023-02-12T19:23:22;59.50;;;27.70;;
28007;SDS011;15333;50.010;20.020;2023-02-12T19:26:23;62.10;;;28.80;;
28007;SDS011;15333;50.010;20.020;2023-02-12T19:29:24;62.80;;;29.00;;
28007;SDS011;15333;50.010;20.020;2023-02-12T19:32:26;60.03;;;29.17;;
28007;SDS011;15333;50.010;20.020;2023-02-12T19:35:27;60.33;;;29.08;;
28007;SDS011;15333;50.010;20.020;2023-02-12T19:38:28;63.65;;;28.50;;
28007;SDS011;15333;50.010;20.020;2023-02-12T19:41:29;56.28;;;28.02;;
28007;SDS011;15333;50.010;20.020;2023-02-12T19:44:31;58.22;;;28.15;;
28007;SDS011;15333;50.010;20.020;2023-02-12T19:47:31;62.42;;;29.08;;
28007;SDS011;15333;50.010;20.020;2023-02-12T19:50:33;57.45;;;26.83;;
28007;SDS011;15333;50.010;20.020;2023-02-12T19:53:33;58.67;;;28.65;;
28007;SDS011;15333;50.010;20.020;2023-02-12T19:56:34;59.35;;;27.63;;
28007;SDS011;15333;50.010;20.020;2023-02-12T19:59:36;53.75;;;25.48;;
28007;SDS011;15333;50.010;20.020;2023-02-12T20:02:37;56.40;;;27.70;;
28007;SDS011;15333;50.010;20.020;2023-02-12T20:05:38;53.25;;;25.77;;
28007;SDS011;15333;50.010;20.020;2023-02-12T20:08:45;58.20;;;26.70;;
28007;SDS011;15333;50.010;20.020;2023-02-12T20:11:46;56.42;;;25.05;;
28007;SDS011;15333;50.010;20.020;2023-02-12T20:14:48;54.33;;;25.52;;
28007;SDS011;15333;50.010;20.020;2023-02-12T20:17:49;57.30;;;26.42;;